Airfield :







YOU CAN JOIN US ON...

 
LOGIN :

Register | Disclaimer

   EN    FR    IT 

 









Legend :    VFR   Marginal VFR   IFR   Intensive IFR   Very Intensive IFR
Visi :
Ceiling :
>= 8 km
>= 3000ft
5 to 8 km
1000 to 3000 ft
1500m to 5 km
500 to 1000 ft
800 to 1500m
200 to 500 ft
< 800m
< 200 ft
Symbols :   Thunderstorms  Fog  Heavy snow  Heavy precipitations  Wind > 20 kt






- Airport Elevation : 6 ft
- IATA code : AEY


BIAR - Akureyri

CURRENT METAR :
  • 131700Z 31006KT 280V350 9999 DZ SCT013 BKN021 OVC028 03/01 Q1004

EXPIRED METARs :
  • 131600Z 34004KT 280V020 9999 DZ SCT008 BKN020 OVC042 03/00 Q1004
  • 131500Z 09007KT 050V130 9999 -RA BKN020 OVC038 03/M01 Q1004

TAF TAF BIAR
Valid from the 13 at 18:00 until the 14 at 18:00 UTC


131613Z 1318/1418 12008KT 9999 BKN025 TX05/1415Z TN00/1404Z
BECMG 1318/1320 04013KT -RASN BKN015 OVC025
TEMPO 1322/1409 4000 RASN OVC009
BECMG 1407/1409 34012KT
BECMG 1412/1414 NSW BKN040



MET'MAP, your aeronautical weather chart ! - Copyright ORBIFLY December 2007 - Disclaimer

ORBIFLY MET'MAP TEAM :

Programming & Development : Alexandra Zaïnal
Concept & original design : Baudouin d'Aumeries
Assistance for programming : Marc-Olivier Méhu
Technical & hardware support : Manuel Goepfert

Contact : metmap@orbifly.com




SOURCES & CREDITS :

   NOAA